sensor_id;sensor_type;location;lat;lon;timestamp;temperature;humidity
23120;DHT22;11729;50.836;4.330;2022-11-18T00:02:09;11.30;99.90
23120;DHT22;11729;50.836;4.330;2022-11-18T00:04:34;11.30;99.90
23120;DHT22;11729;50.836;4.330;2022-11-18T00:07:00;11.40;99.90
23120;DHT22;11729;50.836;4.330;2022-11-18T00:09:25;11.40;99.90
23120;DHT22;11729;50.836;4.330;2022-11-18T00:11:51;11.40;99.90
23120;DHT22;11729;50.836;4.330;2022-11-18T00:14:35;11.40;99.90
23120;DHT22;11729;50.836;4.330;2022-11-18T00:17:03;11.40;99.90
23120;DHT22;11729;50.836;4.330;2022-11-18T00:21:58;11.50;99.90
23120;DHT22;11729;50.836;4.330;2022-11-18T00:24:24;11.50;99.90
23120;DHT22;11729;50.836;4.330;2022-11-18T00:26:50;11.50;99.90
23120;DHT22;11729;50.836;4.330;2022-11-18T00:29:16;11.50;99.90
23120;DHT22;11729;50.836;4.330;2022-11-18T00:31:42;11.50;99.90
23120;DHT22;11729;50.836;4.330;2022-11-18T00:34:10;11.60;99.90
23120;DHT22;11729;50.836;4.330;2022-11-18T00:36:36;11.40;99.90
23120;DHT22;11729;50.836;4.330;2022-11-18T00:39:02;11.50;99.90
23120;DHT22;11729;50.836;4.330;2022-11-18T00:41:29;11.50;99.90
23120;DHT22;11729;50.836;4.330;2022-11-18T00:44:14;11.60;99.90
23120;DHT22;11729;50.836;4.330;2022-11-18T00:46:40;11.50;99.90
23120;DHT22;11729;50.836;4.330;2022-11-18T00:49:07;11.60;99.90
23120;DHT22;11729;50.836;4.330;2022-11-18T00:51:33;11.50;99.90
23120;DHT22;11729;50.836;4.330;2022-11-18T00:53:59;11.60;99.90
23120;DHT22;11729;50.836;4.330;2022-11-18T00:56:24;11.50;99.90
23120;DHT22;11729;50.836;4.330;2022-11-18T00:58:50;11.50;99.90
23120;DHT22;11729;50.836;4.330;2022-11-18T01:01:16;11.40;99.90
23120;DHT22;11729;50.836;4.330;2022-11-18T01:03:41;11.50;99.90
23120;DHT22;11729;50.836;4.330;2022-11-18T01:06:07;11.50;99.90
23120;DHT22;11729;50.836;4.330;2022-11-18T01:08:33;11.60;99.90
23120;DHT22;11729;50.836;4.330;2022-11-18T01:10:58;11.50;99.90
23120;DHT22;11729;50.836;4.330;2022-11-18T01:13:44;11.50;99.90
23120;DHT22;11729;50.836;4.330;2022-11-18T01:16:09;11.50;99.90
23120;DHT22;11729;50.836;4.330;2022-11-18T01:18:35;11.30;99.90
23120;DHT22;11729;50.836;4.330;2022-11-18T01:21:02;11.30;99.90
23120;DHT22;11729;50.836;4.330;2022-11-18T01:23:29;11.20;99.90
23120;DHT22;11729;50.836;4.330;2022-11-18T01:25:55;11.20;99.90
23120;DHT22;11729;50.836;4.330;2022-11-18T01:28:20;11.30;99.90
23120;DHT22;11729;50.836;4.330;2022-11-18T01:30:46;11.10;99.90
23120;DHT22;11729;50.836;4.330;2022-11-18T01:33:12;11.00;99.90
23120;DHT22;11729;50.836;4.330;2022-11-18T01:35:39;10.90;99.90
23120;DHT22;11729;50.836;4.330;2022-11-18T01:38:06;10.90;99.90
23120;DHT22;11729;50.836;4.330;2022-11-18T01:40:33;10.90;99.90
23120;DHT22;11729;50.836;4.330;2022-11-18T01:42:59;11.00;99.90
23120;DHT22;11729;50.836;4.330;2022-11-18T01:45:38;11.00;99.90
23120;DHT22;11729;50.836;4.330;2022-11-18T01:48:08;10.80;99.90
23120;DHT22;11729;50.836;4.330;2022-11-18T01:50:40;10.90;99.90
23120;DHT22;11729;50.836;4.330;2022-11-18T01:53:11;10.80;99.90
23120;DHT22;11729;50.836;4.330;2022-11-18T01:55:43;10.90;99.90
23120;DHT22;11729;50.836;4.330;2022-11-18T01:58:16;10.80;99.90
23120;DHT22;11729;50.836;4.330;2022-11-18T02:00:43;10.90;99.90
23120;DHT22;11729;50.836;4.330;2022-11-18T02:03:08;10.90;99.90
23120;DHT22;11729;50.836;4.330;2022-11-18T02:05:34;10.80;99.90
23120;DHT22;11729;50.836;4.330;2022-11-18T02:08:02;10.70;99.90
23120;DHT22;11729;50.836;4.330;2022-11-18T02:10:28;10.70;99.90
23120;DHT22;11729;50.836;4.330;2022-11-18T02:12:55;10.70;99.90
23120;DHT22;11729;50.836;4.330;2022-11-18T02:15:45;10.80;99.90
23120;DHT22;11729;50.836;4.330;2022-11-18T02:18:39;10.70;99.90
23120;DHT22;11729;50.836;4.330;2022-11-18T02:21:42;10.60;99.90
23120;DHT22;11729;50.836;4.330;2022-11-18T02:29:25;10.70;99.90
23120;DHT22;11729;50.836;4.330;2022-11-18T02:32:18;10.80;99.90
23120;DHT22;11729;50.836;4.330;2022-11-18T02:37:50;10.60;99.90
23120;DHT22;11729;50.836;4.330;2022-11-18T02:40:40;10.50;99.90
23120;DHT22;11729;50.836;4.330;2022-11-18T02:43:20;10.50;99.90
23120;DHT22;11729;50.836;4.330;2022-11-18T02:45:54;10.40;99.90
23120;DHT22;11729;50.836;4.330;2022-11-18T02:48:23;10.30;99.90
23120;DHT22;11729;50.836;4.330;2022-11-18T02:50:51;10.30;99.90
23120;DHT22;11729;50.836;4.330;2022-11-18T02:53:21;10.30;99.90
23120;DHT22;11729;50.836;4.330;2022-11-18T02:55:48;10.30;99.90
23120;DHT22;11729;50.836;4.330;2022-11-18T02:58:17;10.30;99.90
23120;DHT22;11729;50.836;4.330;2022-11-18T03:00:44;10.30;99.90
23120;DHT22;11729;50.836;4.330;2022-11-18T03:03:28;10.10;99.90
23120;DHT22;11729;50.836;4.330;2022-11-18T03:08:33;10.10;99.90
23120;DHT22;11729;50.836;4.330;2022-11-18T03:11:17;10.00;99.90
23120;DHT22;11729;50.836;4.330;2022-11-18T03:16:55;10.10;99.90
23120;DHT22;11729;50.836;4.330;2022-11-18T03:22:27;10.00;99.90
23120;DHT22;11729;50.836;4.330;2022-11-18T03:25:04;9.90;99.90
23120;DHT22;11729;50.836;4.330;2022-11-18T03:27:59;9.90;99.90
23120;DHT22;11729;50.836;4.330;2022-11-18T03:30:29;9.90;99.90
23120;DHT22;11729;50.836;4.330;2022-11-18T03:33:00;9.80;99.90
23120;DHT22;11729;50.836;4.330;2022-11-18T03:35:29;9.80;99.90
23120;DHT22;11729;50.836;4.330;2022-11-18T03:38:10;9.90;99.90
23120;DHT22;11729;50.836;4.330;2022-11-18T03:40:40;9.90;99.90
23120;DHT22;11729;50.836;4.330;2022-11-18T03:43:12;9.90;99.90
23120;DHT22;11729;50.836;4.330;2022-11-18T03:45:52;9.90;99.90
23120;DHT22;11729;50.836;4.330;2022-11-18T03:48:27;9.80;99.90
23120;DHT22;11729;50.836;4.330;2022-11-18T03:51:00;9.70;99.90
23120;DHT22;11729;50.836;4.330;2022-11-18T03:53:30;9.70;99.90
23120;DHT22;11729;50.836;4.330;2022-11-18T03:56:02;9.70;99.90
23120;DHT22;11729;50.836;4.330;2022-11-18T03:58:37;9.80;99.90
23120;DHT22;11729;50.836;4.330;2022-11-18T04:01:14;9.70;99.90
23120;DHT22;11729;50.836;4.330;2022-11-18T04:03:41;9.80;99.90
23120;DHT22;11729;50.836;4.330;2022-11-18T04:06:24;9.80;99.90
23120;DHT22;11729;50.836;4.330;2022-11-18T04:08:58;9.80;99.90
23120;DHT22;11729;50.836;4.330;2022-11-18T04:11:30;9.70;99.90
23120;DHT22;11729;50.836;4.330;2022-11-18T04:14:17;9.70;99.90
23120;DHT22;11729;50.836;4.330;2022-11-18T04:16:43;9.70;99.90
23120;DHT22;11729;50.836;4.330;2022-11-18T04:19:10;9.70;99.90
23120;DHT22;11729;50.836;4.330;2022-11-18T04:21:36;9.60;99.90
23120;DHT22;11729;50.836;4.330;2022-11-18T04:24:02;9.60;99.90
23120;DHT22;11729;50.836;4.330;2022-11-18T04:26:28;9.50;99.90
23120;DHT22;11729;50.836;4.330;2022-11-18T04:28:53;9.60;99.90
23120;DHT22;11729;50.836;4.330;2022-11-18T04:31:19;9.70;99.90
23120;DHT22;11729;50.836;4.330;2022-11-18T04:33:44;9.70;99.90
23120;DHT22;11729;50.836;4.330;2022-11-18T04:36:10;9.70;99.90
23120;DHT22;11729;50.836;4.330;2022-11-18T04:38:35;9.60;99.90
23120;DHT22;11729;50.836;4.330;2022-11-18T04:41:01;9.60;99.90
23120;DHT22;11729;50.836;4.330;2022-11-18T04:43:26;9.60;99.90
23120;DHT22;11729;50.836;4.330;2022-11-18T04:45:52;9.50;99.90
23120;DHT22;11729;50.836;4.330;2022-11-18T04:48:17;9.50;99.90
23120;DHT22;11729;50.836;4.330;2022-11-18T04:50:44;9.50;99.90
23120;DHT22;11729;50.836;4.330;2022-11-18T04:53:10;9.40;99.90
23120;DHT22;11729;50.836;4.330;2022-11-18T04:55:35;9.40;99.90
23120;DHT22;11729;50.836;4.330;2022-11-18T04:58:01;9.40;99.90
23120;DHT22;11729;50.836;4.330;2022-11-18T05:00:27;9.30;99.90
23120;DHT22;11729;50.836;4.330;2022-11-18T05:02:52;9.40;99.90
23120;DHT22;11729;50.836;4.330;2022-11-18T05:05:19;9.50;99.90
23120;DHT22;11729;50.836;4.330;2022-11-18T05:07:44;9.50;99.90
23120;DHT22;11729;50.836;4.330;2022-11-18T05:10:10;9.40;99.90
23120;DHT22;11729;50.836;4.330;2022-11-18T05:12:35;9.40;99.90
23120;DHT22;11729;50.836;4.330;2022-11-18T05:15:22;9.30;99.90
23120;DHT22;11729;50.836;4.330;2022-11-18T05:17:49;9.40;99.90
23120;DHT22;11729;50.836;4.330;2022-11-18T05:20:15;9.30;99.90
23120;DHT22;11729;50.836;4.330;2022-11-18T05:22:41;9.30;99.90
23120;DHT22;11729;50.836;4.330;2022-11-18T05:25:09;9.40;99.90
23120;DHT22;11729;50.836;4.330;2022-11-18T05:27:36;9.30;99.90
23120;DHT22;11729;50.836;4.330;2022-11-18T05:30:01;9.30;99.90
23120;DHT22;11729;50.836;4.330;2022-11-18T05:32:27;9.30;99.90
23120;DHT22;11729;50.836;4.330;2022-11-18T05:34:53;9.30;99.90
23120;DHT22;11729;50.836;4.330;2022-11-18T05:37:18;9.30;99.90
23120;DHT22;11729;50.836;4.330;2022-11-18T05:39:44;9.40;99.90
23120;DHT22;11729;50.836;4.330;2022-11-18T05:42:09;9.40;99.90
23120;DHT22;11729;50.836;4.330;2022-11-18T05:44:53;9.40;99.90
23120;DHT22;11729;50.836;4.330;2022-11-18T05:47:19;9.40;99.90
23120;DHT22;11729;50.836;4.330;2022-11-18T05:49:45;9.40;99.90
23120;DHT22;11729;50.836;4.330;2022-11-18T05:52:10;9.40;99.90
23120;DHT22;11729;50.836;4.330;2022-11-18T05:54:42;9.30;99.90
23120;DHT22;11729;50.836;4.330;2022-11-18T05:57:09;9.30;99.90
23120;DHT22;11729;50.836;4.330;2022-11-18T05:59:34;9.20;99.90
23120;DHT22;11729;50.836;4.330;2022-11-18T06:02:19;9.30;99.90
23120;DHT22;11729;50.836;4.330;2022-11-18T06:04:54;9.20;99.90
23120;DHT22;11729;50.836;4.330;2022-11-18T06:07:26;9.30;99.90
23120;DHT22;11729;50.836;4.330;2022-11-18T06:09:56;9.30;99.90
23120;DHT22;11729;50.836;4.330;2022-11-18T06:12:27;9.30;99.90
23120;DHT22;11729;50.836;4.330;2022-11-18T06:15:04;9.10;99.90
23120;DHT22;11729;50.836;4.330;2022-11-18T06:17:41;9.10;99.90
23120;DHT22;11729;50.836;4.330;2022-11-18T06:20:08;9.20;99.90
23120;DHT22;11729;50.836;4.330;2022-11-18T06:22:35;9.20;99.90
23120;DHT22;11729;50.836;4.330;2022-11-18T06:25:02;9.20;99.90
23120;DHT22;11729;50.836;4.330;2022-11-18T06:27:27;9.30;99.90
23120;DHT22;11729;50.836;4.330;2022-11-18T06:29:54;9.20;99.90
23120;DHT22;11729;50.836;4.330;2022-11-18T06:32:19;9.30;99.90
23120;DHT22;11729;50.836;4.330;2022-11-18T06:34:45;9.30;99.90
23120;DHT22;11729;50.836;4.330;2022-11-18T06:37:15;9.30;99.90
23120;DHT22;11729;50.836;4.330;2022-11-18T06:39:42;9.30;99.90
23120;DHT22;11729;50.836;4.330;2022-11-18T06:42:09;9.30;99.90
23120;DHT22;11729;50.836;4.330;2022-11-18T06:44:34;9.20;99.90
23120;DHT22;11729;50.836;4.330;2022-11-18T06:47:00;9.20;99.90
23120;DHT22;11729;50.836;4.330;2022-11-18T06:49:27;9.20;99.90
23120;DHT22;11729;50.836;4.330;2022-11-18T06:51:53;9.30;99.90
23120;DHT22;11729;50.836;4.330;2022-11-18T06:54:19;9.30;99.90
23120;DHT22;11729;50.836;4.330;2022-11-18T06:56:44;9.30;99.90
23120;DHT22;11729;50.836;4.330;2022-11-18T06:59:10;9.50;99.90
23120;DHT22;11729;50.836;4.330;2022-11-18T07:01:38;9.50;99.90
23120;DHT22;11729;50.836;4.330;2022-11-18T07:04:09;9.50;99.90
23120;DHT22;11729;50.836;4.330;2022-11-18T07:06:36;9.50;99.90
23120;DHT22;11729;50.836;4.330;2022-11-18T07:09:05;9.60;99.90
23120;DHT22;11729;50.836;4.330;2022-11-18T07:11:31;9.50;99.90
23120;DHT22;11729;50.836;4.330;2022-11-18T07:13:56;9.60;99.90
23120;DHT22;11729;50.836;4.330;2022-11-18T07:16:24;9.70;99.90
23120;DHT22;11729;50.836;4.330;2022-11-18T07:18:51;9.80;99.90
23120;DHT22;11729;50.836;4.330;2022-11-18T07:21:19;9.90;99.90
23120;DHT22;11729;50.836;4.330;2022-11-18T07:23:45;9.90;99.90
23120;DHT22;11729;50.836;4.330;2022-11-18T07:26:12;9.90;99.90
23120;DHT22;11729;50.836;4.330;2022-11-18T07:28:38;9.90;99.90
23120;DHT22;11729;50.836;4.330;2022-11-18T07:33:31;10.00;99.90
23120;DHT22;11729;50.836;4.330;2022-11-18T07:36:11;10.10;99.90
23120;DHT22;11729;50.836;4.330;2022-11-18T07:38:38;10.30;99.90
23120;DHT22;11729;50.836;4.330;2022-11-18T07:41:09;10.30;99.90
23120;DHT22;11729;50.836;4.330;2022-11-18T07:43:36;10.30;99.90
23120;DHT22;11729;50.836;4.330;2022-11-18T07:46:19;10.30;99.90
23120;DHT22;11729;50.836;4.330;2022-11-18T07:48:49;10.40;99.90
23120;DHT22;11729;50.836;4.330;2022-11-18T07:51:17;10.50;99.90
23120;DHT22;11729;50.836;4.330;2022-11-18T07:53:43;10.50;99.90
23120;DHT22;11729;50.836;4.330;2022-11-18T07:56:10;10.60;99.90
23120;DHT22;11729;50.836;4.330;2022-11-18T07:58:36;10.50;99.90
23120;DHT22;11729;50.836;4.330;2022-11-18T08:01:08;10.60;99.90
23120;DHT22;11729;50.836;4.330;2022-11-18T08:03:34;10.60;99.90
23120;DHT22;11729;50.836;4.330;2022-11-18T08:06:01;10.60;99.90
23120;DHT22;11729;50.836;4.330;2022-11-18T08:08:29;10.60;99.90
23120;DHT22;11729;50.836;4.330;2022-11-18T08:10:58;10.50;99.90
23120;DHT22;11729;50.836;4.330;2022-11-18T08:13:24;10.50;99.90
23120;DHT22;11729;50.836;4.330;2022-11-18T08:15:51;10.50;99.90
23120;DHT22;11729;50.836;4.330;2022-11-18T08:18:16;10.60;99.90
23120;DHT22;11729;50.836;4.330;2022-11-18T08:20:42;10.60;99.90
23120;DHT22;11729;50.836;4.330;2022-11-18T08:23:10;10.60;99.90
23120;DHT22;11729;50.836;4.330;2022-11-18T08:25:35;10.60;99.90
23120;DHT22;11729;50.836;4.330;2022-11-18T08:28:01;10.70;99.90
23120;DHT22;11729;50.836;4.330;2022-11-18T08:30:31;10.60;99.90
23120;DHT22;11729;50.836;4.330;2022-11-18T08:32:57;10.70;99.90
23120;DHT22;11729;50.836;4.330;2022-11-18T08:35:22;10.80;99.90
23120;DHT22;11729;50.836;4.330;2022-11-18T08:37:48;10.90;99.90
23120;DHT22;11729;50.836;4.330;2022-11-18T08:40:16;10.90;99.90
23120;DHT22;11729;50.836;4.330;2022-11-18T08:42:46;10.90;99.90
23120;DHT22;11729;50.836;4.330;2022-11-18T08:45:12;11.00;99.90
23120;DHT22;11729;50.836;4.330;2022-11-18T08:47:37;10.90;99.90
23120;DHT22;11729;50.836;4.330;2022-11-18T08:50:08;10.90;99.90
23120;DHT22;11729;50.836;4.330;2022-11-18T08:52:35;10.90;99.90
23120;DHT22;11729;50.836;4.330;2022-11-18T08:55:01;11.00;99.90
23120;DHT22;11729;50.836;4.330;2022-11-18T08:57:29;11.10;99.90
23120;DHT22;11729;50.836;4.330;2022-11-18T08:59:56;11.30;99.90
23120;DHT22;11729;50.836;4.330;2022-11-18T09:02:22;11.40;99.90
23120;DHT22;11729;50.836;4.330;2022-11-18T09:04:51;11.50;99.90
23120;DHT22;11729;50.836;4.330;2022-11-18T09:07:19;11.30;99.90
23120;DHT22;11729;50.836;4.330;2022-11-18T09:09:44;11.30;99.90
23120;DHT22;11729;50.836;4.330;2022-11-18T09:12:14;11.40;99.90
23120;DHT22;11729;50.836;4.330;2022-11-18T09:14:43;11.40;99.90
23120;DHT22;11729;50.836;4.330;2022-11-18T09:17:14;11.40;99.90
23120;DHT22;11729;50.836;4.330;2022-11-18T09:19:41;11.50;99.90
23120;DHT22;11729;50.836;4.330;2022-11-18T09:22:09;11.60;99.90
23120;DHT22;11729;50.836;4.330;2022-11-18T09:24:34;11.60;99.90
23120;DHT22;11729;50.836;4.330;2022-11-18T09:27:05;11.70;99.90
23120;DHT22;11729;50.836;4.330;2022-11-18T09:29:31;11.60;99.90
23120;DHT22;11729;50.836;4.330;2022-11-18T09:31:57;11.60;99.90
23120;DHT22;11729;50.836;4.330;2022-11-18T09:34:26;11.70;99.90
23120;DHT22;11729;50.836;4.330;2022-11-18T09:36:52;11.80;99.90
23120;DHT22;11729;50.836;4.330;2022-11-18T09:39:22;11.90;99.90
23120;DHT22;11729;50.836;4.330;2022-11-18T09:41:58;12.00;99.90
23120;DHT22;11729;50.836;4.330;2022-11-18T09:49:45;12.10;99.90
23120;DHT22;11729;50.836;4.330;2022-11-18T09:54:37;12.10;99.90
23120;DHT22;11729;50.836;4.330;2022-11-18T09:57:25;12.20;99.90
23120;DHT22;11729;50.836;4.330;2022-11-18T09:59:54;12.10;99.90
23120;DHT22;11729;50.836;4.330;2022-11-18T10:02:59;12.10;99.90
23120;DHT22;11729;50.836;4.330;2022-11-18T10:05:29;12.30;99.90
23120;DHT22;11729;50.836;4.330;2022-11-18T10:08:00;12.40;99.90
23120;DHT22;11729;50.836;4.330;2022-11-18T10:11:00;12.40;99.90
23120;DHT22;11729;50.836;4.330;2022-11-18T10:13:38;12.50;99.90
23120;DHT22;11729;50.836;4.330;2022-11-18T10:16:41;12.70;99.90
23120;DHT22;11729;50.836;4.330;2022-11-18T10:19:28;12.50;99.90
23120;DHT22;11729;50.836;4.330;2022-11-18T10:24:55;12.60;99.90
23120;DHT22;11729;50.836;4.330;2022-11-18T10:27:22;12.50;99.90
23120;DHT22;11729;50.836;4.330;2022-11-18T10:29:54;12.60;99.90
23120;DHT22;11729;50.836;4.330;2022-11-18T10:32:20;12.60;99.90
23120;DHT22;11729;50.836;4.330;2022-11-18T10:34:51;12.70;99.90
23120;DHT22;11729;50.836;4.330;2022-11-18T10:37:35;12.90;99.90
23120;DHT22;11729;50.836;4.330;2022-11-18T10:40:04;12.90;99.90
23120;DHT22;11729;50.836;4.330;2022-11-18T10:42:34;12.80;99.90
23120;DHT22;11729;50.836;4.330;2022-11-18T10:48:15;12.70;99.90
23120;DHT22;11729;50.836;4.330;2022-11-18T10:50:42;12.70;99.90
23120;DHT22;11729;50.836;4.330;2022-11-18T10:53:34;12.70;99.90
23120;DHT22;11729;50.836;4.330;2022-11-18T10:56:02;12.60;99.90
23120;DHT22;11729;50.836;4.330;2022-11-18T10:58:31;12.60;99.90
23120;DHT22;11729;50.836;4.330;2022-11-18T11:01:22;12.60;99.90
23120;DHT22;11729;50.836;4.330;2022-11-18T11:06:27;12.60;99.90
23120;DHT22;11729;50.836;4.330;2022-11-18T11:11:37;12.50;99.90
23120;DHT22;11729;50.836;4.330;2022-11-18T11:14:14;12.50;99.90
23120;DHT22;11729;50.836;4.330;2022-11-18T11:17:19;12.50;99.90
23120;DHT22;11729;50.836;4.330;2022-11-18T11:20:19;12.50;99.90
23120;DHT22;11729;50.836;4.330;2022-11-18T11:22:46;12.50;99.90
23120;DHT22;11729;50.836;4.330;2022-11-18T11:25:50;12.40;99.90
23120;DHT22;11729;50.836;4.330;2022-11-18T11:28:33;12.40;99.90
23120;DHT22;11729;50.836;4.330;2022-11-18T11:31:27;12.50;99.90
23120;DHT22;11729;50.836;4.330;2022-11-18T11:42:31;12.70;99.90
23120;DHT22;11729;50.836;4.330;2022-11-18T11:50:58;12.80;99.90
23120;DHT22;11729;50.836;4.330;2022-11-18T11:53:52;12.70;99.90
23120;DHT22;11729;50.836;4.330;2022-11-18T11:56:32;12.80;99.90
23120;DHT22;11729;50.836;4.330;2022-11-18T12:04:29;12.80;99.90
23120;DHT22;11729;50.836;4.330;2022-11-18T12:06:58;12.80;99.90
23120;DHT22;11729;50.836;4.330;2022-11-18T12:12:07;12.80;99.90
23120;DHT22;11729;50.836;4.330;2022-11-18T12:14:59;12.80;99.90
23120;DHT22;11729;50.836;4.330;2022-11-18T12:17:33;12.80;99.90
23120;DHT22;11729;50.836;4.330;2022-11-18T12:23:14;12.70;99.90
23120;DHT22;11729;50.836;4.330;2022-11-18T12:25:50;12.70;99.90
23120;DHT22;11729;50.836;4.330;2022-11-18T12:33:57;12.90;99.90
23120;DHT22;11729;50.836;4.330;2022-11-18T12:36:34;12.90;99.90
23120;DHT22;11729;50.836;4.330;2022-11-18T12:41:59;13.00;99.90
23120;DHT22;11729;50.836;4.330;2022-11-18T12:44:45;13.00;99.90
23120;DHT22;11729;50.836;4.330;2022-11-18T12:47:13;13.00;99.90
23120;DHT22;11729;50.836;4.330;2022-11-18T12:54:57;13.10;99.90
23120;DHT22;11729;50.836;4.330;2022-11-18T12:57:27;13.10;99.90
23120;DHT22;11729;50.836;4.330;2022-11-18T12:59:54;13.30;99.90
23120;DHT22;11729;50.836;4.330;2022-11-18T13:02:27;13.20;99.90
23120;DHT22;11729;50.836;4.330;2022-11-18T13:05:11;13.10;99.90
23120;DHT22;11729;50.836;4.330;2022-11-18T13:07:45;13.30;99.90
23120;DHT22;11729;50.836;4.330;2022-11-18T13:10:33;13.30;99.90
23120;DHT22;11729;50.836;4.330;2022-11-18T13:12:59;13.30;99.90
23120;DHT22;11729;50.836;4.330;2022-11-18T13:15:26;13.40;99.90
23120;DHT22;11729;50.836;4.330;2022-11-18T13:18:17;13.50;99.90
23120;DHT22;11729;50.836;4.330;2022-11-18T13:20:56;13.40;99.90
23120;DHT22;11729;50.836;4.330;2022-11-18T13:23:29;13.50;99.90
23120;DHT22;11729;50.836;4.330;2022-11-18T13:34:11;13.50;99.90
23120;DHT22;11729;50.836;4.330;2022-11-18T13:36:45;13.40;99.90
23120;DHT22;11729;50.836;4.330;2022-11-18T13:39:30;13.50;99.90
23120;DHT22;11729;50.836;4.330;2022-11-18T13:42:15;13.50;99.90
23120;DHT22;11729;50.836;4.330;2022-11-18T13:44:45;13.50;99.90
23120;DHT22;11729;50.836;4.330;2022-11-18T13:52:33;13.60;99.90
23120;DHT22;11729;50.836;4.330;2022-11-18T13:55:05;13.70;99.90
23120;DHT22;11729;50.836;4.330;2022-11-18T13:57:31;13.70;99.90
23120;DHT22;11729;50.836;4.330;2022-11-18T14:00:03;13.70;99.90
23120;DHT22;11729;50.836;4.330;2022-11-18T14:02:31;13.60;99.90
23120;DHT22;11729;50.836;4.330;2022-11-18T14:05:02;13.70;99.90
23120;DHT22;11729;50.836;4.330;2022-11-18T14:07:33;13.70;99.90
23120;DHT22;11729;50.836;4.330;2022-11-18T14:10:05;13.70;99.90
23120;DHT22;11729;50.836;4.330;2022-11-18T14:12:34;13.70;99.90
23120;DHT22;11729;50.836;4.330;2022-11-18T14:15:21;13.80;99.90
23120;DHT22;11729;50.836;4.330;2022-11-18T14:17:52;13.90;99.90
23120;DHT22;11729;50.836;4.330;2022-11-18T14:20:19;13.70;99.90
23120;DHT22;11729;50.836;4.330;2022-11-18T14:22:46;13.70;99.90
23120;DHT22;11729;50.836;4.330;2022-11-18T14:25:33;13.80;99.90
23120;DHT22;11729;50.836;4.330;2022-11-18T14:31:20;13.80;99.90
23120;DHT22;11729;50.836;4.330;2022-11-18T14:34:24;13.70;99.90
23120;DHT22;11729;50.836;4.330;2022-11-18T14:36:52;13.70;99.90
23120;DHT22;11729;50.836;4.330;2022-11-18T14:39:27;13.70;99.90
23120;DHT22;11729;50.836;4.330;2022-11-18T14:41:54;13.60;99.90
23120;DHT22;11729;50.836;4.330;2022-11-18T14:44:22;13.60;99.90
23120;DHT22;11729;50.836;4.330;2022-11-18T14:46:54;13.70;99.90
23120;DHT22;11729;50.836;4.330;2022-11-18T14:49:22;13.70;99.90
23120;DHT22;11729;50.836;4.330;2022-11-18T14:51:50;13.70;99.90
23120;DHT22;11729;50.836;4.330;2022-11-18T14:54:18;13.70;99.90
23120;DHT22;11729;50.836;4.330;2022-11-18T14:56:45;13.70;99.90
23120;DHT22;11729;50.836;4.330;2022-11-18T14:59:14;13.80;99.90
23120;DHT22;11729;50.836;4.330;2022-11-18T15:01:40;13.70;99.90
23120;DHT22;11729;50.836;4.330;2022-11-18T15:04:06;13.70;99.90
23120;DHT22;11729;50.836;4.330;2022-11-18T15:06:32;13.60;99.90
23120;DHT22;11729;50.836;4.330;2022-11-18T15:08:58;13.60;99.90
23120;DHT22;11729;50.836;4.330;2022-11-18T15:11:24;13.60;99.90
23120;DHT22;11729;50.836;4.330;2022-11-18T15:13:49;13.70;99.90
23120;DHT22;11729;50.836;4.330;2022-11-18T15:16:20;13.70;99.90
23120;DHT22;11729;50.836;4.330;2022-11-18T15:18:52;13.80;99.90
23120;DHT22;11729;50.836;4.330;2022-11-18T15:21:19;13.70;99.90
23120;DHT22;11729;50.836;4.330;2022-11-18T15:23:45;13.70;99.90
23120;DHT22;11729;50.836;4.330;2022-11-18T15:26:25;13.70;99.90
23120;DHT22;11729;50.836;4.330;2022-11-18T15:28:52;13.70;99.90
23120;DHT22;11729;50.836;4.330;2022-11-18T15:31:19;13.50;99.90
23120;DHT22;11729;50.836;4.330;2022-11-18T15:33:47;13.40;99.90
23120;DHT22;11729;50.836;4.330;2022-11-18T15:36:19;13.40;99.90
23120;DHT22;11729;50.836;4.330;2022-11-18T15:38:46;13.30;99.90
23120;DHT22;11729;50.836;4.330;2022-11-18T15:41:20;13.40;99.90
23120;DHT22;11729;50.836;4.330;2022-11-18T15:43:47;13.40;99.90
23120;DHT22;11729;50.836;4.330;2022-11-18T15:46:14;13.40;99.90
23120;DHT22;11729;50.836;4.330;2022-11-18T15:48:42;13.30;99.90
23120;DHT22;11729;50.836;4.330;2022-11-18T15:51:08;13.20;99.90
23120;DHT22;11729;50.836;4.330;2022-11-18T15:53:33;13.20;99.90
23120;DHT22;11729;50.836;4.330;2022-11-18T15:59:05;12.90;99.90
23120;DHT22;11729;50.836;4.330;2022-11-18T16:01:33;12.80;99.90
23120;DHT22;11729;50.836;4.330;2022-11-18T16:03:59;12.80;99.90
23120;DHT22;11729;50.836;4.330;2022-11-18T16:06:25;12.80;99.90
23120;DHT22;11729;50.836;4.330;2022-11-18T16:08:51;12.80;99.90
23120;DHT22;11729;50.836;4.330;2022-11-18T16:11:17;12.80;99.90
23120;DHT22;11729;50.836;4.330;2022-11-18T16:14:07;12.50;99.90
23120;DHT22;11729;50.836;4.330;2022-11-18T16:16:33;12.50;99.90
23120;DHT22;11729;50.836;4.330;2022-11-18T16:19:02;12.50;99.90
23120;DHT22;11729;50.836;4.330;2022-11-18T16:21:30;12.30;99.90
23120;DHT22;11729;50.836;4.330;2022-11-18T16:23:57;12.30;99.90
23120;DHT22;11729;50.836;4.330;2022-11-18T16:26:24;12.20;99.90
23120;DHT22;11729;50.836;4.330;2022-11-18T16:28:50;12.10;99.90
23120;DHT22;11729;50.836;4.330;2022-11-18T16:31:15;12.00;99.90
23120;DHT22;11729;50.836;4.330;2022-11-18T16:34:04;11.90;99.90
23120;DHT22;11729;50.836;4.330;2022-11-18T16:36:30;11.90;99.90
23120;DHT22;11729;50.836;4.330;2022-11-18T16:38:55;11.90;99.90
23120;DHT22;11729;50.836;4.330;2022-11-18T16:41:22;11.90;99.90
23120;DHT22;11729;50.836;4.330;2022-11-18T16:43:59;11.90;99.90
23120;DHT22;11729;50.836;4.330;2022-11-18T16:46:26;11.90;99.90
23120;DHT22;11729;50.836;4.330;2022-11-18T16:48:51;11.80;99.90
23120;DHT22;11729;50.836;4.330;2022-11-18T16:51:19;11.80;99.90
23120;DHT22;11729;50.836;4.330;2022-11-18T16:53:52;11.70;99.90
23120;DHT22;11729;50.836;4.330;2022-11-18T16:56:27;11.70;99.90
23120;DHT22;11729;50.836;4.330;2022-11-18T16:58:57;11.70;99.90
23120;DHT22;11729;50.836;4.330;2022-11-18T17:01:23;11.70;99.90
23120;DHT22;11729;50.836;4.330;2022-11-18T17:04:06;11.70;99.90
23120;DHT22;11729;50.836;4.330;2022-11-18T17:06:32;11.70;99.90
23120;DHT22;11729;50.836;4.330;2022-11-18T17:08:58;11.70;99.90
23120;DHT22;11729;50.836;4.330;2022-11-18T17:11:24;11.60;99.90
23120;DHT22;11729;50.836;4.330;2022-11-18T17:13:50;11.60;99.90
23120;DHT22;11729;50.836;4.330;2022-11-18T17:16:18;11.50;99.90
23120;DHT22;11729;50.836;4.330;2022-11-18T17:18:44;11.50;99.90
23120;DHT22;11729;50.836;4.330;2022-11-18T17:21:16;11.50;99.90
23120;DHT22;11729;50.836;4.330;2022-11-18T17:23:46;11.60;99.90
23120;DHT22;11729;50.836;4.330;2022-11-18T17:26:13;11.60;99.90
23120;DHT22;11729;50.836;4.330;2022-11-18T17:28:39;11.60;99.90
23120;DHT22;11729;50.836;4.330;2022-11-18T17:31:13;11.70;99.90
23120;DHT22;11729;50.836;4.330;2022-11-18T17:33:39;11.70;99.90
23120;DHT22;11729;50.836;4.330;2022-11-18T17:36:08;11.70;99.90
23120;DHT22;11729;50.836;4.330;2022-11-18T17:38:36;11.80;99.90